Česky Dansk Deutsch English Español Suomi Français Magyar Italiano Nederlands norsk Polski Português svenska Türkçe

 

Het Weer

Geneve-Cointrin (Zwitzerland)

13:20, 23 augustus 2016 (GMT)

NWNNE
WE
SWSSE
Home            
Geneve-Cointrin Lausanne Amberieu Chambery / Aix-Les-Bains Payerne Sion Lyon / Satolas Macon Dole Tavaux Neuchatel Les Eplatures Lyon / Bron Besancon Grenoble / St. Geoirs Pian Rosa Bern / Belp Dijon Grenchen St-Etienne Boutheon Saint-Yan Belfort Torino / Caselle Luxeuil

Om een weerknop op uw website of weblog te plaatsen, copieer onderstaande code en plak die in uw pagina. In het eerste vakje staat HTML-code, in het tweede vakje UBB-code.


Add to Google

Details

Wind speed:2 bf, 6 kn, 3.1 m/s, 6.9 miles/h, 11.1 km/h
Wind direction:N, 350° - E, 090°
Visibility:Greater than 10000 m, 10 km, 32800 ft, 6.2 miles
Clouds:CAVOC
Temperature:26°C, 79°F
Gefühlte Temperatur:26°C, 79°F
Dew-point:12°C, 54°F
Atmospheric pressure:1025 hPa, 768.8 mmHg, 30.27 inHg, 1.012 atm
Relative humidity:41.7 %
METAR:LSGG 231320Z 03006KT 350V090 CAVOK 26/12 Q1025 NOSIG

Snelkoppelingen

Actuele weersinformatie van de hele wereld. Voeg locaties toe met het plus (+) symbool. Deze snelkoppelingen kunnen worden toegevoegd aan Google.

Lid van de Technetium groep

website free tracking
StatCounter NetStat W3C Validator

24-10-2020 07:35:45
astro.technetium.be money.technetium.be phote.technetium.be tafeltennistafel.technetium.be www.ligfiets.net